MAPA DE AEROPUERTO

INFORMACIÓN METAR y TAF

METAR FOR LEBA
ADDS - METARS form results

(1645 UTC 07 May 2021)
Data provider http://aviationweather.gov/metar/data/
 
METAR text: LEBA 071630Z 25005KT 200V300 CAVOK 31/05 Q1015
Conditions at: LEBA (CORDOBA AIRPORT , ES) observed 1630 UTC 07 May 2021
Temperature: 31.0°C (88°F)
Dewpoint: 5.0°C (41°F) [RH = 19%]
Pressure (altimeter): 29.97 inches Hg (1015.0 mb)
Winds: from the WSW (250 degrees) at 6 MPH (5 knots; 2.6 m/s)
Visibility: 6 or more miles (10+ km)
Ceiling: ceiling and visibility are OK
Clouds: unknown
Weather: no significant weather observed at this time

METAR text: LEBA 071600Z 28005KT 230V330 CAVOK 31/05 Q1015
Conditions at: LEBA (CORDOBA AIRPORT , ES) observed 1600 UTC 07 May 2021
Temperature: 31.0°C (88°F)
Dewpoint: 5.0°C (41°F) [RH = 19%]
Pressure (altimeter): 29.97 inches Hg (1015.0 mb)
Winds: from the W (280 degrees) at 6 MPH (5 knots; 2.6 m/s)
Visibility: 6 or more miles (10+ km)
Ceiling: ceiling and visibility are OK
Clouds: unknown
Weather: no significant weather observed at this time

Forecast for: LEBA (CORDOBA AIRPORT , ES)
Text: TAF LEBA 071400Z 0715/0815 27005KT CAVOK TX32/0715Z TN11/0806Z
Forecast period: 1500 UTC 07 May 2021 to 1000 UTC 08 May 2021
Forecast type: FROM: standard forecast or significant change
Winds: from the W (270 degrees) at 6 MPH (5 knots; 2.6 m/s)
Visibility: 6 or more miles (10+ km)
Ceiling: unknown
Clouds: missing
Weather: no significant weather forecast for this period
Text: BECMG 0810/0812 21012KT
Forecast period: 1000 to 1500 UTC 08 May 2021
Forecast type: BECOMING: Conditions expected to become as follows by 1200 UTC 08 May 2021
Winds: from the SSW (210 degrees) at 14 MPH (12 knots; 6.2 m/s)
Visibility: 6 or more miles (10+ km)
Ceiling: unknown
Clouds: missing
Weather: no significant weather forecast for this period